Terminal Aerodrome Forecast
Issued by NWS New Orleans/Baton Rouge, LA

Home | Current Version | Previous Version | Text Only | Print | Product List | Glossary On
Versions: 1 2 3 4 5 6 7 8 9 10 11 12 13 14 15 16 17 18 19 20 21 22 23
000
FTUS44 KLIX 222328
TAFNEW
TAF
KNEW 222328Z 2300/2324 12005KT P6SM FEW040 SCT110
     FM231200 34004KT P6SM SCT030 BKN110 PROB30 2318/2319 4SM TSRA
      BKN030CB
     FM231900 07004KT P6SM SCT035 BKN100 PROB30 2319/2321 4SM TSRA
      BKN035CB
     FM232100 15005KT P6SM SCT040 BKN100 PROB30 2321/2324 4SM TSRA
      BKN035CB=

USA.gov is the U.S. government's official web portal to all federal, state and local government web resources and services.